International Virtual Aviation Organisation

Russian Federation and Kazakhstan MCD

 
URSS 041100Z 27002MPS 9999 FEW050 SCT120 14/07 Q1022 R02/010070 R06/010070 NOSIG RMK QFE765 R06/26002MPS QFE765
QNH:(hPa/inHg/mmHg)1022 / 30.18 / 767
QFE:(hPa/inHg/mmHg)1019 / 30.08 / 764
Temperature14
Dew Point7
Visibility> 10000
Weather
Cloud CoverFEW (5000);
SCT (12000);
Transition Height1100 m./3700 ft.
Transition LevelFL50
SQUAWK